Pagrindinis puslapis
METAR-TAF:

METAR-TAF

Oro uostai :

Makasas, Ekvadoras

platuma: 02-17-57-S, ilguma: 078-07-15-W, Aukštis: 1052 m

Dabartinis oras

Ataskaita buvo paskelbta 36 minutes, ne 13:00 UTC
Vėjas 2 kt iš Vakarų
Temperatūra 20°C
Drėgmė 94%
Slėgis 1019 hPa
Matomumas: 2000 m
Mažai debesys ne aukštis 500 ft
Išsisklaidę debesys ne aukštis 3000 ft
Apsiniaukę ne aukštis 9000 ft
Rūkas lopais

METAR: SEMC 281300Z 27002KT 6000 2000S BCFG FEW005 SCT030 OVC090 20/19 Q1019 RMK A3010

Laikas: 08:36 (13:36 UTC)


TAF: trūkstamas

Orai ataskaitas ir orų prognozės (METAR, TAF).

turimą stotys yra geltonos ir raudonos taškus žemėlapyje.

Perkelti pele per norėdami pamatyti stoties vardą.

Tada spustelėkite, norėdami matyti oro stebėjimo ir prognozės.

Norėdami pakeisti žemėlapį: spustelėkite ant žalios mygtukų su juodo kryžiaus žemyn,; žalią mygtuką su brūkšneliu, jei norite nutolinti; arba žalių rodyklių gretimoms žemėlapius.


METAR-TAF: